08AR weather

CLOSED Crittenden Regional Hospital Heliport
West Memphis, Arkansas, United States

Public forecast

Using degrees Fahrenheit for public forecast. Weather courtesy of forecast.io.

METAR (pilot weather report)

Closest report is West Memphis Municipal Airport, 2.2 nm (4.1 km) W. Retrieved 2019/09/21 10:53 UTC (1 hour ago):

KAWM 211053Z AUTO 17003KT 10SM CLR 19/18 A3017 RMK AO2 SLP212 T01940178 $

TAF (pilot weather forecast)

Closest forecast is Memphis International Airport, 12.1 nm (22.4 km) ESE. Retrieved 2019/09/21 06:22 UTC (6 hours ago):

TAF KMEM 210520Z 2106/2212 17007KT P6SM FEW120 BKN250 FM210700 16006KT P6SM SCT150 BKN250 FM211500 17010KT P6SM SCT050 BKN250 FM220100 17004KT P6SM SKC